sensor_id;sensor_type;location;lat;lon;timestamp;pressure;altitude;pressure_sealevel;temperature;humidity
75157;BME280;63736;50.076;8.198;2023-02-15T00:01:11;101048.78;;;1.78;100.00
75157;BME280;63736;50.076;8.198;2023-02-15T00:03:36;101047.91;;;1.79;100.00
75157;BME280;63736;50.076;8.198;2023-02-15T00:06:02;101044.41;;;1.78;100.00
75157;BME280;63736;50.076;8.198;2023-02-15T00:08:28;101042.69;;;1.77;100.00
75157;BME280;63736;50.076;8.198;2023-02-15T00:11:03;101034.84;;;1.74;100.00
75157;BME280;63736;50.076;8.198;2023-02-15T00:13:28;101039.19;;;1.75;100.00
75157;BME280;63736;50.076;8.198;2023-02-15T00:15:53;101034.81;;;1.76;100.00
75157;BME280;63736;50.076;8.198;2023-02-15T00:18:19;101027.75;;;1.76;100.00
75157;BME280;63736;50.076;8.198;2023-02-15T00:20:44;101024.22;;;1.77;100.00
75157;BME280;63736;50.076;8.198;2023-02-15T00:23:09;101024.19;;;1.79;100.00
75157;BME280;63736;50.076;8.198;2023-02-15T00:25:34;101019.69;;;1.84;100.00
75157;BME280;63736;50.076;8.198;2023-02-15T00:28:00;101011.78;;;1.84;100.00
75157;BME280;63736;50.076;8.198;2023-02-15T00:30:25;101019.72;;;1.83;100.00
75157;BME280;63736;50.076;8.198;2023-02-15T00:32:50;101011.88;;;1.79;100.00
75157;BME280;63736;50.076;8.198;2023-02-15T00:35:15;101019.84;;;1.76;100.00
75157;BME280;63736;50.076;8.198;2023-02-15T00:37:41;101012.00;;;1.75;100.00
75157;BME280;63736;50.076;8.198;2023-02-15T00:40:06;101008.59;;;1.70;100.00
75157;BME280;63736;50.076;8.198;2023-02-15T00:42:31;100998.97;;;1.69;100.00
75157;BME280;63736;50.076;8.198;2023-02-15T00:44:56;101002.50;;;1.68;100.00
75157;BME280;63736;50.076;8.198;2023-02-15T00:47:22;101005.13;;;1.68;100.00
75157;BME280;63736;50.076;8.198;2023-02-15T00:49:47;101006.00;;;1.68;100.00
75157;BME280;63736;50.076;8.198;2023-02-15T00:52:12;101013.91;;;1.68;100.00
75157;BME280;63736;50.076;8.198;2023-02-15T00:54:37;101016.50;;;1.70;100.00
75157;BME280;63736;50.076;8.198;2023-02-15T00:57:03;101009.44;;;1.72;100.00
75157;BME280;63736;50.076;8.198;2023-02-15T00:59:29;101008.56;;;1.71;100.00
75157;BME280;63736;50.076;8.198;2023-02-15T01:01:54;101002.47;;;1.69;100.00
75157;BME280;63736;50.076;8.198;2023-02-15T01:04:19;101005.13;;;1.68;100.00
75157;BME280;63736;50.076;8.198;2023-02-15T01:06:44;100999.94;;;1.64;100.00
75157;BME280;63736;50.076;8.198;2023-02-15T01:09:10;101001.72;;;1.64;100.00
75157;BME280;63736;50.076;8.198;2023-02-15T01:11:35;100999.97;;;1.63;100.00
75157;BME280;63736;50.076;8.198;2023-02-15T01:14:00;101007.88;;;1.63;100.00
75157;BME280;63736;50.076;8.198;2023-02-15T01:16:26;100998.31;;;1.59;100.00
75157;BME280;63736;50.076;8.198;2023-02-15T01:18:54;101007.16;;;1.56;100.00
75157;BME280;63736;50.076;8.198;2023-02-15T01:21:20;100996.63;;;1.55;100.00
75157;BME280;63736;50.076;8.198;2023-02-15T01:23:45;100987.88;;;1.54;100.00
75157;BME280;63736;50.076;8.198;2023-02-15T01:26:11;100991.38;;;1.56;100.00
75157;BME280;63736;50.076;8.198;2023-02-15T01:28:37;100992.22;;;1.57;100.00
75157;BME280;63736;50.076;8.198;2023-02-15T01:31:25;100996.50;;;1.61;100.00
75157;BME280;63736;50.076;8.198;2023-02-15T01:33:50;100996.50;;;1.61;100.00
75157;BME280;63736;50.076;8.198;2023-02-15T01:36:15;100987.75;;;1.60;100.00
75157;BME280;63736;50.076;8.198;2023-02-15T01:38:42;100983.28;;;1.62;100.00
75157;BME280;63736;50.076;8.198;2023-02-15T01:41:07;100986.72;;;1.66;100.00
75157;BME280;63736;50.076;8.198;2023-02-15T01:43:45;100995.44;;;1.70;100.00
75157;BME280;63736;50.076;8.198;2023-02-15T01:46:11;100987.44;;;1.73;100.00
75157;BME280;63736;50.076;8.198;2023-02-15T01:48:44;100990.88;;;1.76;100.00
75157;BME280;63736;50.076;8.198;2023-02-15T01:51:10;100988.25;;;1.76;100.00
75157;BME280;63736;50.076;8.198;2023-02-15T01:53:47;100982.13;;;1.76;100.00
75157;BME280;63736;50.076;8.198;2023-02-15T01:56:19;100971.53;;;1.77;100.00
75157;BME280;63736;50.076;8.198;2023-02-15T01:58:46;100973.25;;;1.80;100.00
75157;BME280;63736;50.076;8.198;2023-02-15T02:01:13;100972.34;;;1.81;100.00
75157;BME280;63736;50.076;8.198;2023-02-15T02:04:11;100973.19;;;1.81;100.00
75157;BME280;63736;50.076;8.198;2023-02-15T02:06:38;100961.84;;;1.78;100.00
75157;BME280;63736;50.076;8.198;2023-02-15T02:09:04;100966.28;;;1.77;100.00
75157;BME280;63736;50.076;8.198;2023-02-15T02:11:29;100961.81;;;1.79;100.00
75157;BME280;63736;50.076;8.198;2023-02-15T02:13:55;100964.44;;;1.81;100.00
75157;BME280;63736;50.076;8.198;2023-02-15T02:16:30;100952.13;;;1.81;100.00
75157;BME280;63736;50.076;8.198;2023-02-15T02:22:03;100949.44;;;1.83;100.00
75157;BME280;63736;50.076;8.198;2023-02-15T02:24:59;100954.59;;;1.88;100.00
75157;BME280;63736;50.076;8.198;2023-02-15T02:30:36;100955.31;;;1.94;100.00
75157;BME280;63736;50.076;8.198;2023-02-15T02:35:55;100939.41;;;1.99;100.00
75157;BME280;63736;50.076;8.198;2023-02-15T02:41:32;100941.78;;;2.08;100.00
75157;BME280;63736;50.076;8.198;2023-02-15T02:44:13;100941.66;;;2.13;100.00
75157;BME280;63736;50.076;8.198;2023-02-15T02:47:16;100945.94;;;2.17;100.00
75157;BME280;63736;50.076;8.198;2023-02-15T02:49:44;100944.09;;;2.21;100.00
75157;BME280;63736;50.076;8.198;2023-02-15T02:55:06;100944.84;;;2.26;100.00
75157;BME280;63736;50.076;8.198;2023-02-15T02:57:34;100942.16;;;2.27;100.00
75157;BME280;63736;50.076;8.198;2023-02-15T03:00:04;100942.19;;;2.26;100.00
75157;BME280;63736;50.076;8.198;2023-02-15T03:02:36;100937.81;;;2.26;100.00
75157;BME280;63736;50.076;8.198;2023-02-15T03:05:06;100935.13;;;2.28;100.00
75157;BME280;63736;50.076;8.198;2023-02-15T03:07:34;100925.47;;;2.27;100.00
75157;BME280;63736;50.076;8.198;2023-02-15T03:10:04;100926.31;;;2.29;100.00
75157;BME280;63736;50.076;8.198;2023-02-15T03:12:36;100927.13;;;2.31;100.00
75157;BME280;63736;50.076;8.198;2023-02-15T03:15:11;100922.69;;;2.33;100.00
75157;BME280;63736;50.076;8.198;2023-02-15T03:17:44;100920.16;;;2.28;100.00
75157;BME280;63736;50.076;8.198;2023-02-15T03:20:20;100913.34;;;2.20;100.00
75157;BME280;63736;50.076;8.198;2023-02-15T03:23:00;100909.97;;;2.16;100.00
75157;BME280;63736;50.076;8.198;2023-02-15T03:25:31;100905.63;;;2.13;100.00
75157;BME280;63736;50.076;8.198;2023-02-15T03:28:02;100907.38;;;2.13;100.00
75157;BME280;63736;50.076;8.198;2023-02-15T03:30:29;100901.25;;;2.12;100.00
75157;BME280;63736;50.076;8.198;2023-02-15T03:32:57;100895.09;;;2.13;100.00
75157;BME280;63736;50.076;8.198;2023-02-15T03:35:25;100909.06;;;2.15;100.00
75157;BME280;63736;50.076;8.198;2023-02-15T03:38:01;100901.16;;;2.15;100.00
75157;BME280;63736;50.076;8.198;2023-02-15T03:40:37;100902.06;;;2.14;100.00
75157;BME280;63736;50.076;8.198;2023-02-15T03:43:48;100907.34;;;2.14;100.00
75157;BME280;63736;50.076;8.198;2023-02-15T03:46:23;100892.38;;;2.17;100.00
75157;BME280;63736;50.076;8.198;2023-02-15T03:48:55;100899.28;;;2.21;100.00
75157;BME280;63736;50.076;8.198;2023-02-15T03:51:26;100898.38;;;2.22;100.00
75157;BME280;63736;50.076;8.198;2023-02-15T03:54:09;100900.06;;;2.24;100.00
75157;BME280;63736;50.076;8.198;2023-02-15T03:56:37;100898.25;;;2.26;100.00
75157;BME280;63736;50.076;8.198;2023-02-15T03:59:03;100898.22;;;2.28;100.00
75157;BME280;63736;50.076;8.198;2023-02-15T04:04:25;100904.38;;;2.27;100.00
75157;BME280;63736;50.076;8.198;2023-02-15T04:06:51;100903.50;;;2.28;100.00
75157;BME280;63736;50.076;8.198;2023-02-15T04:09:16;100894.75;;;2.26;100.00
75157;BME280;63736;50.076;8.198;2023-02-15T04:12:00;100896.53;;;2.25;100.00
75157;BME280;63736;50.076;8.198;2023-02-15T04:14:25;100901.75;;;2.27;100.00
75157;BME280;63736;50.076;8.198;2023-02-15T04:17:10;100903.50;;;2.28;100.00
75157;BME280;63736;50.076;8.198;2023-02-15T04:19:35;100903.53;;;2.26;100.00
75157;BME280;63736;50.076;8.198;2023-02-15T04:22:19;100907.88;;;2.27;100.00
75157;BME280;63736;50.076;8.198;2023-02-15T04:25:04;100909.63;;;2.28;100.00
75157;BME280;63736;50.076;8.198;2023-02-15T04:27:37;100911.41;;;2.28;100.00
75157;BME280;63736;50.076;8.198;2023-02-15T04:30:03;100916.63;;;2.29;100.00
75157;BME280;63736;50.076;8.198;2023-02-15T04:32:28;100912.19;;;2.31;100.00
75157;BME280;63736;50.076;8.198;2023-02-15T04:34:53;100913.91;;;2.33;100.00
75157;BME280;63736;50.076;8.198;2023-02-15T04:37:19;100904.28;;;2.30;100.00
75157;BME280;63736;50.076;8.198;2023-02-15T04:39:44;100902.59;;;2.27;100.00
75157;BME280;63736;50.076;8.198;2023-02-15T04:42:09;100901.81;;;2.25;100.00
75157;BME280;63736;50.076;8.198;2023-02-15T04:44:35;100902.69;;;2.24;100.00
75157;BME280;63736;50.076;8.198;2023-02-15T04:47:00;100904.50;;;2.22;100.00
75157;BME280;63736;50.076;8.198;2023-02-15T04:49:25;100896.59;;;2.22;100.00
75157;BME280;63736;50.076;8.198;2023-02-15T04:51:50;100894.06;;;2.19;100.00
75157;BME280;63736;50.076;8.198;2023-02-15T04:54:16;100889.72;;;2.17;100.00
75157;BME280;63736;50.076;8.198;2023-02-15T04:56:42;100890.63;;;2.15;100.00
75157;BME280;63736;50.076;8.198;2023-02-15T04:59:10;100892.41;;;2.15;100.00
75157;BME280;63736;50.076;8.198;2023-02-15T05:01:35;100888.88;;;2.14;100.00
75157;BME280;63736;50.076;8.198;2023-02-15T05:04:01;100885.44;;;2.12;100.00
75157;BME280;63736;50.076;8.198;2023-02-15T05:06:26;100884.56;;;2.13;100.00
75157;BME280;63736;50.076;8.198;2023-02-15T05:08:51;100888.09;;;2.12;100.00
75157;BME280;63736;50.076;8.198;2023-02-15T05:11:17;100888.00;;;2.15;100.00
75157;BME280;63736;50.076;8.198;2023-02-15T05:13:42;100891.47;;;2.18;100.00
75157;BME280;63736;50.076;8.198;2023-02-15T05:16:07;100887.88;;;2.20;100.00
75157;BME280;63736;50.076;8.198;2023-02-15T05:18:32;100884.28;;;2.23;100.00
75157;BME280;63736;50.076;8.198;2023-02-15T05:20:58;100879.88;;;2.23;100.00
75157;BME280;63736;50.076;8.198;2023-02-15T05:23:23;100883.41;;;2.24;100.00
75157;BME280;63736;50.076;8.198;2023-02-15T05:25:49;100886.03;;;2.24;100.00
75157;BME280;63736;50.076;8.198;2023-02-15T05:28:34;100888.72;;;2.21;100.00
75157;BME280;63736;50.076;8.198;2023-02-15T05:31:07;100881.88;;;2.15;100.00
75157;BME280;63736;50.076;8.198;2023-02-15T05:33:33;100880.25;;;2.09;100.00
75157;BME280;63736;50.076;8.198;2023-02-15T05:35:59;100884.75;;;2.06;100.00
75157;BME280;63736;50.076;8.198;2023-02-15T05:38:24;100881.34;;;2.02;100.00
75157;BME280;63736;50.076;8.198;2023-02-15T05:40:50;100873.50;;;1.99;100.00
75157;BME280;63736;50.076;8.198;2023-02-15T05:43:16;100875.31;;;1.97;100.00
75157;BME280;63736;50.076;8.198;2023-02-15T05:45:45;100872.63;;;1.98;100.00
75157;BME280;63736;50.076;8.198;2023-02-15T05:48:10;100877.06;;;1.98;100.00
75157;BME280;63736;50.076;8.198;2023-02-15T05:50:35;100876.16;;;1.99;100.00
75157;BME280;63736;50.076;8.198;2023-02-15T05:53:01;100883.16;;;1.98;100.00
75157;BME280;63736;50.076;8.198;2023-02-15T05:55:26;100884.97;;;1.98;100.00
75157;BME280;63736;50.076;8.198;2023-02-15T05:57:51;100884.97;;;1.98;100.00
75157;BME280;63736;50.076;8.198;2023-02-15T06:00:17;100877.91;;;1.98;100.00
75157;BME280;63736;50.076;8.198;2023-02-15T06:02:42;100883.97;;;2.02;100.00
75157;BME280;63736;50.076;8.198;2023-02-15T06:05:07;100881.34;;;2.02;100.00
75157;BME280;63736;50.076;8.198;2023-02-15T06:07:33;100886.50;;;2.05;100.00
75157;BME280;63736;50.076;8.198;2023-02-15T06:09:58;100882.97;;;2.06;100.00
75157;BME280;63736;50.076;8.198;2023-02-15T06:12:23;100884.66;;;2.09;100.00
75157;BME280;63736;50.076;8.198;2023-02-15T06:14:49;100891.66;;;2.10;100.00
75157;BME280;63736;50.076;8.198;2023-02-15T06:17:14;100899.53;;;2.11;100.00
75157;BME280;63736;50.076;8.198;2023-02-15T06:19:41;100896.88;;;2.11;100.00
75157;BME280;63736;50.076;8.198;2023-02-15T06:22:06;100899.53;;;2.11;100.00
75157;BME280;63736;50.076;8.198;2023-02-15T06:24:32;100893.41;;;2.11;100.00
75157;BME280;63736;50.076;8.198;2023-02-15T06:26:57;100903.00;;;2.12;100.00
75157;BME280;63736;50.076;8.198;2023-02-15T06:29:22;100897.84;;;2.09;100.00
75157;BME280;63736;50.076;8.198;2023-02-15T06:31:48;100903.16;;;2.07;100.00
75157;BME280;63736;50.076;8.198;2023-02-15T06:34:13;100902.28;;;2.07;100.00
75157;BME280;63736;50.076;8.198;2023-02-15T06:36:38;100894.31;;;2.10;100.00
75157;BME280;63736;50.076;8.198;2023-02-15T06:39:04;100902.16;;;2.11;100.00
75157;BME280;63736;50.076;8.198;2023-02-15T06:41:29;100905.59;;;2.15;100.00
75157;BME280;63736;50.076;8.198;2023-02-15T06:43:55;100913.41;;;2.18;100.00
75157;BME280;63736;50.076;8.198;2023-02-15T06:46:20;100917.81;;;2.18;100.00
75157;BME280;63736;50.076;8.198;2023-02-15T06:48:45;100913.34;;;2.21;100.00
75157;BME280;63736;50.076;8.198;2023-02-15T06:51:10;100908.06;;;2.21;100.00
75157;BME280;63736;50.076;8.198;2023-02-15T06:53:36;100910.72;;;2.21;100.00
75157;BME280;63736;50.076;8.198;2023-02-15T06:56:02;100909.88;;;2.19;100.00
75157;BME280;63736;50.076;8.198;2023-02-15T06:58:28;100918.63;;;2.20;100.00
75157;BME280;63736;50.076;8.198;2023-02-15T07:00:53;100917.72;;;2.21;100.00
75157;BME280;63736;50.076;8.198;2023-02-15T07:03:18;100920.47;;;2.18;100.00
75157;BME280;63736;50.076;8.198;2023-02-15T07:05:43;100923.16;;;2.16;100.00
75157;BME280;63736;50.076;8.198;2023-02-15T07:08:09;100919.56;;;2.17;100.00
75157;BME280;63736;50.076;8.198;2023-02-15T07:10:34;100918.69;;;2.18;100.00
75157;BME280;63736;50.076;8.198;2023-02-15T07:12:59;100916.03;;;2.18;100.00
75157;BME280;63736;50.076;8.198;2023-02-15T07:15:25;100918.63;;;2.20;100.00
75157;BME280;63736;50.076;8.198;2023-02-15T07:17:50;100920.38;;;2.21;100.00
75157;BME280;63736;50.076;8.198;2023-02-15T07:20:17;100921.25;;;2.20;100.00
75157;BME280;63736;50.076;8.198;2023-02-15T07:22:42;100926.47;;;2.23;100.00
75157;BME280;63736;50.076;8.198;2023-02-15T07:25:08;100921.19;;;2.23;100.00
75157;BME280;63736;50.076;8.198;2023-02-15T07:27:34;100921.25;;;2.21;100.00
75157;BME280;63736;50.076;8.198;2023-02-15T07:29:59;100923.00;;;2.21;100.00
75157;BME280;63736;50.076;8.198;2023-02-15T07:32:27;100929.28;;;2.17;100.00
75157;BME280;63736;50.076;8.198;2023-02-15T07:34:52;100917.13;;;2.11;100.00
75157;BME280;63736;50.076;8.198;2023-02-15T07:37:17;100915.38;;;2.10;100.00
75157;BME280;63736;50.076;8.198;2023-02-15T07:39:42;100910.13;;;2.10;100.00
75157;BME280;63736;50.076;8.198;2023-02-15T07:42:08;100910.03;;;2.13;100.00
75157;BME280;63736;50.076;8.198;2023-02-15T07:44:33;100912.56;;;2.18;100.00
75157;BME280;63736;50.076;8.198;2023-02-15T07:46:58;100911.59;;;2.20;100.00
75157;BME280;63736;50.076;8.198;2023-02-15T07:49:23;100915.03;;;2.24;100.00
75157;BME280;63736;50.076;8.198;2023-02-15T07:51:48;100909.78;;;2.22;100.00
75157;BME280;63736;50.076;8.198;2023-02-15T07:54:13;100915.94;;;2.23;100.00
75157;BME280;63736;50.076;8.198;2023-02-15T07:56:39;100912.31;;;2.27;100.00
75157;BME280;63736;50.076;8.198;2023-02-15T07:59:04;100916.63;;;2.29;100.00
75157;BME280;63736;50.076;8.198;2023-02-15T08:01:33;100906.94;;;2.30;100.00
75157;BME280;63736;50.076;8.198;2023-02-15T08:04:00;100907.81;;;2.30;100.00
75157;BME280;63736;50.076;8.198;2023-02-15T08:06:26;100907.81;;;2.30;100.00
75157;BME280;63736;50.076;8.198;2023-02-15T08:08:52;100908.66;;;2.31;100.00
75157;BME280;63736;50.076;8.198;2023-02-15T08:11:19;100906.94;;;2.30;100.00
75157;BME280;63736;50.076;8.198;2023-02-15T08:13:51;100900.81;;;2.29;100.00
75157;BME280;63736;50.076;8.198;2023-02-15T08:16:23;100899.03;;;2.30;100.00
75157;BME280;63736;50.076;8.198;2023-02-15T08:18:48;100894.63;;;2.30;100.00
75157;BME280;63736;50.076;8.198;2023-02-15T08:21:13;100896.28;;;2.35;100.00
75157;BME280;63736;50.076;8.198;2023-02-15T08:23:39;100897.97;;;2.37;100.00
75157;BME280;63736;50.076;8.198;2023-02-15T08:26:04;100894.22;;;2.44;100.00
75157;BME280;63736;50.076;8.198;2023-02-15T08:28:29;100901.91;;;2.52;100.00
75157;BME280;63736;50.076;8.198;2023-02-15T08:30:54;100893.06;;;2.55;100.00
75157;BME280;63736;50.076;8.198;2023-02-15T08:33:20;100890.31;;;2.59;100.00
75157;BME280;63736;50.076;8.198;2023-02-15T08:35:45;100888.41;;;2.64;100.00
75157;BME280;63736;50.076;8.198;2023-02-15T08:38:10;100887.34;;;2.70;100.00
75157;BME280;63736;50.076;8.198;2023-02-15T08:40:35;100892.56;;;2.72;100.00
75157;BME280;63736;50.076;8.198;2023-02-15T08:43:02;100885.59;;;2.71;100.00
75157;BME280;63736;50.076;8.198;2023-02-15T08:45:28;100889.03;;;2.73;100.00
75157;BME280;63736;50.076;8.198;2023-02-15T08:47:53;100883.75;;;2.73;100.00
75157;BME280;63736;50.076;8.198;2023-02-15T08:50:18;100886.50;;;2.70;100.00
75157;BME280;63736;50.076;8.198;2023-02-15T08:52:43;100881.16;;;2.71;100.00
75157;BME280;63736;50.076;8.198;2023-02-15T08:55:08;100878.63;;;2.68;100.00
75157;BME280;63736;50.076;8.198;2023-02-15T08:57:33;100871.66;;;2.66;100.00
75157;BME280;63736;50.076;8.198;2023-02-15T08:59:59;100876.00;;;2.67;100.00
75157;BME280;63736;50.076;8.198;2023-02-15T09:02:24;100864.50;;;2.69;100.00
75157;BME280;63736;50.076;8.198;2023-02-15T09:04:49;100861.84;;;2.71;100.00
75157;BME280;63736;50.076;8.198;2023-02-15T09:07:14;100857.38;;;2.73;100.00
75157;BME280;63736;50.076;8.198;2023-02-15T09:09:39;100859.03;;;2.75;100.00
75157;BME280;63736;50.076;8.198;2023-02-15T09:12:04;100862.34;;;2.82;100.00
75157;BME280;63736;50.076;8.198;2023-02-15T09:14:30;100864.81;;;2.88;100.00
75157;BME280;63736;50.076;8.198;2023-02-15T09:16:55;100864.75;;;2.90;100.00
75157;BME280;63736;50.076;8.198;2023-02-15T09:19:21;100857.72;;;2.90;100.00
75157;BME280;63736;50.076;8.198;2023-02-15T09:21:46;100856.81;;;2.91;100.00
75157;BME280;63736;50.076;8.198;2023-02-15T09:24:12;100853.19;;;2.94;100.00
75157;BME280;63736;50.076;8.198;2023-02-15T09:26:39;100860.13;;;2.98;100.00
75157;BME280;63736;50.076;8.198;2023-02-15T09:29:07;100854.81;;;3.00;100.00
75157;BME280;63736;50.076;8.198;2023-02-15T09:31:33;100851.09;;;3.05;100.00
75157;BME280;63736;50.076;8.198;2023-02-15T09:33:59;100853.66;;;3.08;100.00
75157;BME280;63736;50.076;8.198;2023-02-15T09:36:29;100855.41;;;3.08;100.00
75157;BME280;63736;50.076;8.198;2023-02-15T09:39:03;100855.47;;;3.06;100.00
75157;BME280;63736;50.076;8.198;2023-02-15T09:47:13;100855.34;;;3.09;100.00
75157;BME280;63736;50.076;8.198;2023-02-15T09:49:49;100865.06;;;3.09;100.00
75157;BME280;63736;50.076;8.198;2023-02-15T09:52:30;100855.28;;;3.12;100.00
75157;BME280;63736;50.076;8.198;2023-02-15T09:57:52;100866.69;;;3.13;100.00
75157;BME280;63736;50.076;8.198;2023-02-15T10:00:24;100866.75;;;3.11;100.00
75157;BME280;63736;50.076;8.198;2023-02-15T10:03:08;100869.38;;;3.11;100.00
75157;BME280;63736;50.076;8.198;2023-02-15T10:10:57;100869.94;;;3.23;100.00
75157;BME280;63736;50.076;8.198;2023-02-15T10:13:50;100863.75;;;3.22;100.00
75157;BME280;63736;50.076;8.198;2023-02-15T10:16:26;100870.88;;;3.20;100.00
75157;BME280;63736;50.076;8.198;2023-02-15T10:26:43;100881.22;;;3.26;100.00
75157;BME280;63736;50.076;8.198;2023-02-15T10:31:50;100879.16;;;3.36;100.00
75157;BME280;63736;50.076;8.198;2023-02-15T10:34:19;100874.75;;;3.37;100.00
75157;BME280;63736;50.076;8.198;2023-02-15T10:44:47;100873.50;;;3.49;100.00
75157;BME280;63736;50.076;8.198;2023-02-15T10:49:56;100865.28;;;3.56;100.00
75157;BME280;63736;50.076;8.198;2023-02-15T10:52:31;100853.81;;;3.57;100.00
75157;BME280;63736;50.076;8.198;2023-02-15T10:55:09;100859.03;;;3.59;100.00
75157;BME280;63736;50.076;8.198;2023-02-15T10:57:46;100860.78;;;3.60;100.00
75157;BME280;63736;50.076;8.198;2023-02-15T11:00:23;100857.28;;;3.59;100.00
75157;BME280;63736;50.076;8.198;2023-02-15T11:05:41;100849.41;;;3.58;100.00
75157;BME280;63736;50.076;8.198;2023-02-15T11:08:08;100850.00;;;3.66;100.00
75157;BME280;63736;50.076;8.198;2023-02-15T11:10:52;100855.03;;;3.74;100.00
75157;BME280;63736;50.076;8.198;2023-02-15T11:13:19;100847.75;;;3.80;100.00
75157;BME280;63736;50.076;8.198;2023-02-15T11:18:12;100836.72;;;3.94;100.00
75157;BME280;63736;50.076;8.198;2023-02-15T11:23:12;100823.09;;;4.05;100.00
75157;BME280;63736;50.076;8.198;2023-02-15T11:25:40;100824.63;;;4.12;100.00
75157;BME280;63736;50.076;8.198;2023-02-15T11:28:06;100825.34;;;4.16;100.00
75157;BME280;63736;50.076;8.198;2023-02-15T11:30:40;100820.88;;;4.18;100.00
75157;BME280;63736;50.076;8.198;2023-02-15T11:33:12;100822.53;;;4.21;100.00
75157;BME280;63736;50.076;8.198;2023-02-15T11:35:48;100823.25;;;4.26;100.00
75157;BME280;63736;50.076;8.198;2023-02-15T11:38:20;100823.13;;;4.29;100.00
75157;BME280;63736;50.076;8.198;2023-02-15T11:40:51;100823.03;;;4.32;100.00
75157;BME280;63736;50.076;8.198;2023-02-15T11:43:23;100819.47;;;4.33;100.00
75157;BME280;63736;50.076;8.198;2023-02-15T11:45:49;100813.41;;;4.29;100.00
75157;BME280;63736;50.076;8.198;2023-02-15T11:48:15;100808.06;;;4.31;100.00
75157;BME280;63736;50.076;8.198;2023-02-15T11:50:41;100807.94;;;4.34;100.00
75157;BME280;63736;50.076;8.198;2023-02-15T11:53:13;100807.03;;;4.35;100.00
75157;BME280;63736;50.076;8.198;2023-02-15T11:55:39;100798.03;;;4.39;100.00
75157;BME280;63736;50.076;8.198;2023-02-15T12:00:56;100793.38;;;4.46;100.00
75157;BME280;63736;50.076;8.198;2023-02-15T12:03:33;100786.19;;;4.50;100.00
75157;BME280;63736;50.076;8.198;2023-02-15T12:06:02;100786.41;;;4.43;100.00
75157;BME280;63736;50.076;8.198;2023-02-15T12:08:33;100783.78;;;4.43;100.00
75157;BME280;63736;50.076;8.198;2023-02-15T12:13:33;100782.41;;;4.57;100.00
75157;BME280;63736;50.076;8.198;2023-02-15T12:15:58;100775.22;;;4.60;100.00
75157;BME280;63736;50.076;8.198;2023-02-15T12:18:39;100774.22;;;4.63;100.00
75157;BME280;63736;50.076;8.198;2023-02-15T12:21:07;100780.25;;;4.67;100.00
75157;BME280;63736;50.076;8.198;2023-02-15T12:23:32;100780.06;;;4.71;100.00
75157;BME280;63736;50.076;8.198;2023-02-15T12:25:58;100780.94;;;4.72;100.00
75157;BME280;63736;50.076;8.198;2023-02-15T12:28:25;100780.06;;;4.71;100.00
75157;BME280;63736;50.076;8.198;2023-02-15T12:30:52;100776.44;;;4.74;100.00
75157;BME280;63736;50.076;8.198;2023-02-15T12:33:26;100771.03;;;4.77;100.00
75157;BME280;63736;50.076;8.198;2023-02-15T12:38:24;100762.22;;;4.76;100.00
75157;BME280;63736;50.076;8.198;2023-02-15T12:40:57;100761.31;;;4.77;100.00
75157;BME280;63736;50.076;8.198;2023-02-15T12:43:26;100758.59;;;4.79;100.00
75157;BME280;63736;50.076;8.198;2023-02-15T12:45:52;100758.41;;;4.84;100.00
75157;BME280;63736;50.076;8.198;2023-02-15T12:48:18;100752.78;;;4.91;100.00
75157;BME280;63736;50.076;8.198;2023-02-15T12:50:45;100750.03;;;4.94;100.00
75157;BME280;63736;50.076;8.198;2023-02-15T12:53:15;100747.50;;;4.91;100.00
75157;BME280;63736;50.076;8.198;2023-02-15T12:55:56;100747.47;;;4.93;100.00
75157;BME280;63736;50.076;8.198;2023-02-15T12:58:23;100738.53;;;4.95;100.00
75157;BME280;63736;50.076;8.198;2023-02-15T13:01:01;100734.22;;;4.93;100.00
75157;BME280;63736;50.076;8.198;2023-02-15T13:03:27;100736.91;;;4.91;100.00
75157;BME280;63736;50.076;8.198;2023-02-15T13:05:53;100729.03;;;4.90;100.00
75157;BME280;63736;50.076;8.198;2023-02-15T13:10:54;100723.81;;;4.88;100.00
75157;BME280;63736;50.076;8.198;2023-02-15T13:13:24;100728.94;;;4.93;100.00
75157;BME280;63736;50.076;8.198;2023-02-15T13:15:51;100725.31;;;4.94;100.00
75157;BME280;63736;50.076;8.198;2023-02-15T13:18:23;100721.50;;;5.01;100.00
75157;BME280;63736;50.076;8.198;2023-02-15T13:20:51;100713.34;;;5.06;100.00
75157;BME280;63736;50.076;8.198;2023-02-15T13:23:23;100717.75;;;5.07;100.00
75157;BME280;63736;50.076;8.198;2023-02-15T13:25:52;100716.00;;;5.06;100.00
75157;BME280;63736;50.076;8.198;2023-02-15T13:28:20;100714.25;;;5.06;100.00
75157;BME280;63736;50.076;8.198;2023-02-15T13:30:47;100714.25;;;5.06;100.00
75157;BME280;63736;50.076;8.198;2023-02-15T13:35:56;100704.50;;;5.07;100.00
75157;BME280;63736;50.076;8.198;2023-02-15T13:41:06;100706.41;;;5.03;100.00
75157;BME280;63736;50.076;8.198;2023-02-15T13:43:44;100696.75;;;5.02;100.00
75157;BME280;63736;50.076;8.198;2023-02-15T13:46:14;100693.16;;;5.03;100.00
75157;BME280;63736;50.076;8.198;2023-02-15T13:51:12;100688.50;;;5.10;100.00
75157;BME280;63736;50.076;8.198;2023-02-15T14:04:04;100681.78;;;5.01;100.00
75157;BME280;63736;50.076;8.198;2023-02-15T14:06:36;100680.06;;;5.00;100.00
75157;BME280;63736;50.076;8.198;2023-02-15T14:11:37;100684.44;;;5.01;100.00
75157;BME280;63736;50.076;8.198;2023-02-15T14:24:50;100678.41;;;4.97;100.00
75157;BME280;63736;50.076;8.198;2023-02-15T14:27:22;100682.97;;;4.94;100.00
75157;BME280;63736;50.076;8.198;2023-02-15T14:29:57;100684.16;;;4.87;100.00
75157;BME280;63736;50.076;8.198;2023-02-15T14:32:42;100680.84;;;4.82;100.00
75157;BME280;63736;50.076;8.198;2023-02-15T14:35:15;100680.91;;;4.80;100.00
75157;BME280;63736;50.076;8.198;2023-02-15T14:40:29;100676.47;;;4.80;100.00
75157;BME280;63736;50.076;8.198;2023-02-15T14:43:15;100674.88;;;4.76;100.00